Time;durP1;ratioP1;P1;durP2;ratioP2;P2;SDS_P1;SDS_P2;PMS_P1;PMS_P2;Temp;Humidity;BMP_temperature;BMP_pressure;BME280_temperature;BME280_humidity;BME280_pressure;Samples;Min_cycle;Max_cycle;Signal;HPM_P1;HPM_P2
2023/06/08 00:00:15;;;;;;;2.22;0.80;;;17.40;99.90;;;;;;5055549;28;20274;-90
2023/06/08 00:02:48;;;;;;;4.22;1.33;;;17.40;99.90;;;;;;5055045;28;20196;-90
2023/06/08 00:05:21;;;;;;;1.55;0.95;;;17.50;99.90;;;;;;5055016;28;20233;-92
2023/06/08 00:07:52;;;;;;;2.85;0.93;;;17.50;99.90;;;;;;5055508;28;20227;-90
2023/06/08 00:10:23;;;;;;;2.00;0.90;;;17.60;99.90;;;;;;5065422;28;20200;-91
2023/06/08 00:12:55;;;;;;;1.10;0.80;;;17.50;99.90;;;;;;5075354;28;20196;-91
2023/06/08 00:15:32;;;;;;;1.85;0.82;;;17.60;99.90;;;;;;5074760;28;20275;-90
2023/06/08 00:18:07;;;;;;;2.17;1.02;;;17.70;99.90;;;;;;5067234;28;20211;-90
2023/06/08 00:20:39;;;;;;;1.45;0.90;;;17.80;99.90;;;;;;5074486;28;20199;-90
2023/06/08 00:23:11;;;;;;;2.85;0.90;;;17.80;99.90;;;;;;5066263;28;20208;-90
2023/06/08 00:25:43;;;;;;;1.27;0.77;;;17.70;99.90;;;;;;5065520;28;20192;-91
2023/06/08 00:28:14;;;;;;;2.70;0.90;;;17.70;99.90;;;;;;5070613;28;20294;-90
2023/06/08 00:30:47;;;;;;;1.63;0.90;;;17.70;99.90;;;;;;5075195;28;20569;-90
2023/06/08 00:33:21;;;;;;;1.63;0.90;;;17.70;99.90;;;;;;5070537;28;20236;-89
2023/06/08 00:35:54;;;;;;;1.65;0.73;;;17.60;99.90;;;;;;5075281;28;20191;-88
2023/06/08 00:38:27;;;;;;;1.95;0.80;;;17.60;99.90;;;;;;5076723;28;20200;-90
2023/06/08 00:40:59;;;;;;;2.80;1.15;;;17.70;99.90;;;;;;5075218;28;20210;-90
2023/06/08 00:43:30;;;;;;;2.03;0.82;;;17.70;99.90;;;;;;5075176;28;20712;-90
2023/06/08 00:46:07;;;;;;;1.08;0.90;;;17.70;99.90;;;;;;5075372;28;20180;-90
2023/06/08 00:48:40;;;;;;;1.35;0.80;;;17.70;99.90;;;;;;5080959;28;20690;-90
2023/06/08 00:51:13;;;;;;;1.00;0.90;;;17.60;99.90;;;;;;5094749;28;20234;-90
2023/06/08 00:53:47;;;;;;;2.78;0.77;;;17.60;99.90;;;;;;5077048;28;20208;-89
2023/06/08 00:56:19;;;;;;;1.77;0.95;;;17.50;99.90;;;;;;5077585;28;20201;-90
2023/06/08 00:58:55;;;;;;;2.47;0.80;;;17.50;99.90;;;;;;5077961;28;20215;-91
2023/06/08 01:01:31;;;;;;;2.75;0.80;;;17.60;99.90;;;;;;5077707;28;20196;-90
2023/06/08 01:04:05;;;;;;;1.88;0.80;;;17.50;99.90;;;;;;5076680;28;20220;-88
2023/06/08 01:06:39;;;;;;;1.85;0.73;;;17.60;99.90;;;;;;5063997;28;20192;-91
2023/06/08 01:09:22;;;;;;;1.27;0.90;;;17.60;99.90;;;;;;5069715;28;20235;-90
2023/06/08 01:12:20;;;;;;;4.53;1.00;;;17.60;99.90;;;;;;5075206;28;20289;-90
2023/06/08 01:14:58;;;;;;;21.55;2.78;;;17.70;99.90;;;;;;5064742;28;20215;-90
2023/06/08 01:17:41;;;;;;;2.67;1.17;;;17.90;99.90;;;;;;5062882;28;20207;-90
2023/06/08 01:20:29;;;;;;;0.85;0.80;;;18.10;99.90;;;;;;5072267;28;20192;-90
2023/06/08 01:23:16;;;;;;;8.80;0.90;;;18.20;99.90;;;;;;5077346;28;20188;-90
2023/06/08 01:25:56;;;;;;;1.33;0.90;;;18.30;99.90;;;;;;5077515;28;20254;-90
2023/06/08 01:28:28;;;;;;;3.78;0.90;;;18.40;99.90;;;;;;5075011;28;20211;-90
2023/06/08 01:31:02;;;;;;;2.92;0.73;;;18.30;99.90;;;;;;5074593;28;20187;-90
2023/06/08 01:33:38;;;;;;;6.32;0.90;;;18.30;99.90;;;;;;5073574;28;20200;-91
2023/06/08 01:36:16;;;;;;;1.80;0.63;;;18.30;99.90;;;;;;5074630;28;20840;-91
2023/06/08 01:39:04;;;;;;;0.95;0.73;;;18.30;99.90;;;;;;5076530;28;20199;-90
2023/06/08 01:41:42;;;;;;;2.10;0.95;;;18.30;99.90;;;;;;5057683;28;20203;-91
2023/06/08 01:44:17;;;;;;;2.55;0.80;;;18.20;99.90;;;;;;5070669;28;20206;-91
2023/06/08 01:46:54;;;;;;;1.30;0.70;;;18.20;99.90;;;;;;5062291;28;20204;-91
2023/06/08 01:49:29;;;;;;;0.68;0.60;;;18.20;99.90;;;;;;5052283;28;20250;-89
2023/06/08 01:52:02;;;;;;;0.70;0.70;;;18.20;99.90;;;;;;5053656;28;20210;-90
2023/06/08 01:54:35;;;;;;;1.20;0.80;;;18.20;99.90;;;;;;5056598;28;20208;-91
2023/06/08 01:57:14;;;;;;;3.55;0.85;;;18.10;99.90;;;;;;5053281;28;20565;-89
2023/06/08 01:59:47;;;;;;;1.00;0.70;;;18.20;99.90;;;;;;5057187;28;20213;-90
2023/06/08 02:02:20;;;;;;;1.98;0.60;;;18.10;99.90;;;;;;5074443;28;20655;-91
2023/06/08 02:04:52;;;;;;;0.75;0.75;;;18.20;99.90;;;;;;5074028;28;20203;-90
2023/06/08 02:07:24;;;;;;;2.75;0.82;;;18.20;99.90;;;;;;5073702;28;20223;-91
2023/06/08 02:09:56;;;;;;;2.47;0.75;;;18.10;99.90;;;;;;5073744;28;20227;-91
2023/06/08 02:12:31;;;;;;;2.20;0.85;;;18.00;99.90;;;;;;5073226;28;20199;-91
2023/06/08 02:15:04;;;;;;;0.95;0.70;;;18.00;99.90;;;;;;5073694;28;20218;-91
2023/06/08 02:17:36;;;;;;;3.40;1.10;;;18.00;99.90;;;;;;5069546;28;20192;-90
2023/06/08 02:20:10;;;;;;;4.20;0.85;;;18.00;99.90;;;;;;5054582;28;20200;-90
2023/06/08 02:22:45;;;;;;;3.67;0.70;;;18.00;99.90;;;;;;5061941;28;20204;-90
2023/06/08 02:25:16;;;;;;;1.65;0.80;;;18.00;99.90;;;;;;5073885;28;20199;-91
2023/06/08 02:27:52;;;;;;;3.80;0.90;;;18.00;99.90;;;;;;5084339;28;20192;-90
2023/06/08 02:30:25;;;;;;;0.70;0.70;;;18.00;99.90;;;;;;5086695;28;20226;-90
2023/06/08 02:32:58;;;;;;;2.10;0.88;;;18.00;99.90;;;;;;5082518;28;20544;-91
2023/06/08 02:35:29;;;;;;;0.88;0.55;;;18.00;99.90;;;;;;5055842;28;20203;-90
2023/06/08 02:38:02;;;;;;;1.40;0.80;;;18.00;99.90;;;;;;5057222;28;20652;-91
2023/06/08 02:40:35;;;;;;;0.77;0.77;;;18.00;99.90;;;;;;5070709;28;20196;-91
2023/06/08 02:43:10;;;;;;;3.15;0.90;;;18.10;99.90;;;;;;5075439;28;20286;-91
2023/06/08 02:45:42;;;;;;;1.55;0.80;;;18.10;99.90;;;;;;5076771;28;20203;-91
2023/06/08 02:48:13;;;;;;;1.40;0.82;;;18.10;99.90;;;;;;5079038;28;20196;-90
2023/06/08 02:50:46;;;;;;;1.20;0.95;;;18.20;99.90;;;;;;5080780;28;20223;-89
2023/06/08 02:53:19;;;;;;;3.42;0.95;;;18.30;99.90;;;;;;5077236;28;20271;-89
2023/06/08 02:55:54;;;;;;;1.10;0.80;;;18.30;99.90;;;;;;5074680;28;20215;-90
2023/06/08 02:58:30;;;;;;;2.35;0.70;;;18.30;99.90;;;;;;5061843;28;20236;-91
2023/06/08 03:01:02;;;;;;;1.40;0.85;;;18.40;99.90;;;;;;5058765;28;20215;-92
2023/06/08 03:03:35;;;;;;;1.00;0.80;;;18.50;99.90;;;;;;5058255;28;20200;-90
2023/06/08 03:06:07;;;;;;;2.22;0.80;;;18.60;99.90;;;;;;5057083;28;20231;-91
2023/06/08 03:08:40;;;;;;;4.07;1.92;;;18.60;99.90;;;;;;5068437;28;20219;-90
2023/06/08 03:11:14;;;;;;;3.70;1.70;;;18.70;99.90;;;;;;5078537;28;20204;-90
2023/06/08 03:13:49;;;;;;;5.25;1.50;;;18.70;99.90;;;;;;5092218;28;20251;-90
2023/06/08 03:16:22;;;;;;;1.40;0.90;;;18.70;99.90;;;;;;5077552;28;20320;-90
2023/06/08 03:18:54;;;;;;;1.88;0.90;;;18.80;99.90;;;;;;5076902;28;20196;-91
2023/06/08 03:21:28;;;;;;;1.35;0.90;;;18.80;99.90;;;;;;5077204;28;20210;-91
2023/06/08 03:24:00;;;;;;;4.22;1.20;;;18.80;99.90;;;;;;5078207;28;20203;-90
2023/06/08 03:26:32;;;;;;;1.13;1.00;;;18.80;99.90;;;;;;5077629;28;20211;-91
2023/06/08 03:29:08;;;;;;;1.10;0.80;;;18.70;99.90;;;;;;5077193;28;20230;-90
2023/06/08 03:31:39;;;;;;;2.60;0.82;;;18.60;99.90;;;;;;5079178;28;20288;-90
2023/06/08 03:34:12;;;;;;;0.80;0.70;;;18.60;99.90;;;;;;5075762;28;20711;-90
2023/06/08 03:36:45;;;;;;;2.10;0.85;;;18.50;99.90;;;;;;5058199;28;20193;-90
2023/06/08 03:39:16;;;;;;;1.15;0.80;;;18.60;99.90;;;;;;5060746;28;20283;-90
2023/06/08 03:41:48;;;;;;;1.17;0.70;;;18.50;99.90;;;;;;5076946;28;20218;-91
2023/06/08 03:44:24;;;;;;;2.22;0.80;;;18.60;99.90;;;;;;5076471;28;20210;-90
2023/06/08 03:46:56;;;;;;;1.65;0.80;;;18.60;99.90;;;;;;5079608;28;20199;-90
2023/06/08 03:49:29;;;;;;;3.15;0.88;;;18.60;99.90;;;;;;5076612;28;20224;-90
2023/06/08 03:52:02;;;;;;;0.93;0.73;;;18.50;99.90;;;;;;5076036;28;20200;-90
2023/06/08 03:54:35;;;;;;;2.00;1.00;;;18.40;99.90;;;;;;5077594;28;20203;-90
2023/06/08 03:57:07;;;;;;;3.28;1.10;;;18.30;99.90;;;;;;5076622;28;20670;-91
2023/06/08 03:59:42;;;;;;;0.77;0.70;;;18.10;99.90;;;;;;5068308;28;20200;-89
2023/06/08 04:02:15;;;;;;;2.33;0.90;;;18.10;99.90;;;;;;5079245;28;20200;-89
2023/06/08 04:04:48;;;;;;;1.15;0.85;;;18.00;99.90;;;;;;5079289;28;20202;-89
2023/06/08 04:07:20;;;;;;;1.45;0.82;;;18.00;99.90;;;;;;5078080;28;20694;-90
2023/06/08 04:09:52;;;;;;;1.45;0.70;;;18.00;99.90;;;;;;5076705;28;20227;-90
2023/06/08 04:12:24;;;;;;;1.55;1.00;;;17.90;99.90;;;;;;5078955;28;20188;-90
2023/06/08 04:14:58;;;;;;;3.80;0.90;;;17.90;99.90;;;;;;5078049;28;20616;-89
2023/06/08 04:17:31;;;;;;;1.00;0.90;;;17.90;99.90;;;;;;5078360;28;20202;-89
2023/06/08 04:20:04;;;;;;;1.58;0.75;;;17.80;99.90;;;;;;5074807;28;20196;-90
2023/06/08 04:22:35;;;;;;;1.27;0.90;;;17.80;99.90;;;;;;5063773;28;20220;-89
2023/06/08 04:25:08;;;;;;;2.65;0.80;;;17.60;99.90;;;;;;5075947;28;20539;-89
2023/06/08 04:27:41;;;;;;;1.13;0.77;;;17.50;99.90;;;;;;5060980;28;20276;-90
2023/06/08 04:30:18;;;;;;;1.83;0.80;;;17.60;99.90;;;;;;5060057;28;20714;-90
2023/06/08 04:32:51;;;;;;;1.25;0.80;;;17.50;99.90;;;;;;5071198;28;20311;-90
2023/06/08 04:35:24;;;;;;;2.35;0.90;;;17.50;99.90;;;;;;5076431;28;20200;-90
2023/06/08 04:37:56;;;;;;;0.95;0.80;;;17.50;99.90;;;;;;5075589;28;20191;-90
2023/06/08 04:40:29;;;;;;;1.60;0.82;;;17.40;99.90;;;;;;5059301;28;20241;-89
2023/06/08 04:43:00;;;;;;;2.95;0.80;;;17.40;99.90;;;;;;5060583;28;20219;-88
2023/06/08 04:45:39;;;;;;;1.98;0.90;;;17.40;99.90;;;;;;5063890;28;20203;-88
2023/06/08 04:48:11;;;;;;;1.38;0.65;;;17.50;99.90;;;;;;5064172;28;20207;-87
2023/06/08 04:50:45;;;;;;;1.73;0.90;;;17.40;99.90;;;;;;5072618;28;20764;-90
2023/06/08 04:53:21;;;;;;;1.98;0.80;;;17.50;99.90;;;;;;5088045;28;20211;-89
2023/06/08 04:55:57;;;;;;;2.15;0.80;;;17.50;99.90;;;;;;5081074;28;20199;-89
2023/06/08 04:58:29;;;;;;;2.55;0.80;;;17.50;99.90;;;;;;5063074;28;20670;-90
2023/06/08 05:01:04;;;;;;;0.98;0.80;;;17.50;99.90;;;;;;5056077;28;20211;-91
2023/06/08 05:03:36;;;;;;;1.17;0.73;;;17.50;99.90;;;;;;5057014;28;20196;-91
2023/06/08 05:06:08;;;;;;;1.48;0.88;;;17.40;99.90;;;;;;5058324;28;20204;-91
2023/06/08 05:08:39;;;;;;;2.47;0.82;;;17.40;99.90;;;;;;5077566;28;20251;-90
2023/06/08 05:11:12;;;;;;;1.60;0.90;;;17.40;99.90;;;;;;5076803;28;20661;-90
2023/06/08 05:13:44;;;;;;;1.55;0.98;;;17.40;99.90;;;;;;5078219;28;20206;-91
2023/06/08 05:16:21;;;;;;;1.75;0.77;;;17.40;99.90;;;;;;5081112;28;20196;-90
2023/06/08 05:21:43;;;;;;;3.85;1.50;;;17.20;99.90;;;;;;5081787;28;20196;-91
2023/06/08 05:24:16;;;;;;;3.33;2.00;;;17.30;99.90;;;;;;5070329;28;20210;-87
2023/06/08 05:26:47;;;;;;;3.05;2.33;;;17.30;99.90;;;;;;5079493;28;20225;-90
2023/06/08 05:29:23;;;;;;;2.78;2.40;;;17.30;99.90;;;;;;5079754;28;20579;-89
2023/06/08 05:31:58;;;;;;;2.15;1.50;;;17.30;99.90;;;;;;5081779;28;20278;-91
2023/06/08 05:34:30;;;;;;;1.52;0.80;;;17.20;99.90;;;;;;5081233;28;20195;-89
2023/06/08 05:37:04;;;;;;;1.50;0.80;;;17.30;99.90;;;;;;5080127;28;20268;-90
2023/06/08 05:39:35;;;;;;;1.08;0.80;;;17.40;99.90;;;;;;5066686;28;20197;-90
2023/06/08 05:42:07;;;;;;;1.27;0.85;;;17.30;99.90;;;;;;5075605;28;20223;-90
2023/06/08 05:44:44;;;;;;;2.33;0.88;;;17.40;99.90;;;;;;5067739;28;20196;-89
2023/06/08 05:47:21;;;;;;;2.67;1.10;;;17.30;99.90;;;;;;5060922;28;20204;-91
2023/06/08 05:49:54;;;;;;;4.57;0.98;;;17.30;99.90;;;;;;5078160;28;20227;-90
2023/06/08 05:52:27;;;;;;;1.17;0.80;;;17.30;99.90;;;;;;5079730;28;20207;-90
2023/06/08 05:55:01;;;;;;;1.88;1.20;;;17.30;99.90;;;;;;5079258;28;20202;-90
2023/06/08 05:57:35;;;;;;;0.90;0.88;;;17.30;99.90;;;;;;5080133;28;20202;-90
2023/06/08 06:00:12;;;;;;;1.25;1.00;;;17.30;99.90;;;;;;5079818;28;20581;-90
2023/06/08 06:02:59;;;;;;;1.40;0.98;;;17.30;99.90;;;;;;5079762;28;20215;-90
2023/06/08 06:05:36;;;;;;;3.42;0.90;;;17.30;99.90;;;;;;5077575;28;20196;-90
2023/06/08 06:08:07;;;;;;;1.55;0.90;;;17.30;99.90;;;;;;5076178;28;20283;-91
2023/06/08 06:10:39;;;;;;;1.20;1.00;;;17.30;99.90;;;;;;5074472;28;20690;-90
2023/06/08 06:13:12;;;;;;;3.03;0.95;;;17.30;99.90;;;;;;5073559;28;20200;-90
2023/06/08 06:15:44;;;;;;;1.33;0.98;;;17.30;99.90;;;;;;5069971;28;20208;-91
2023/06/08 06:18:19;;;;;;;1.30;0.88;;;17.30;99.90;;;;;;5074792;28;20229;-91
2023/06/08 06:20:52;;;;;;;2.95;1.05;;;17.30;99.90;;;;;;5076500;28;20574;-92
2023/06/08 06:23:26;;;;;;;3.55;1.33;;;17.30;99.90;;;;;;5075827;28;20207;-91
2023/06/08 06:25:57;;;;;;;1.67;0.80;;;17.30;99.90;;;;;;5073753;28;20670;-91
2023/06/08 06:28:29;;;;;;;1.25;0.90;;;17.30;99.90;;;;;;5073995;28;20195;-91
2023/06/08 06:31:02;;;;;;;1.65;1.00;;;17.30;99.90;;;;;;5072574;28;20207;-90
2023/06/08 06:33:38;;;;;;;1.58;1.05;;;17.40;99.90;;;;;;5083345;28;20239;-85
2023/06/08 06:36:10;;;;;;;1.40;0.88;;;17.40;99.90;;;;;;5100837;28;20181;-88
2023/06/08 06:38:42;;;;;;;1.40;1.08;;;17.40;99.90;;;;;;5100825;28;20190;-90
2023/06/08 06:41:15;;;;;;;1.75;1.08;;;17.40;99.90;;;;;;5083351;28;20295;-89
2023/06/08 06:43:48;;;;;;;1.50;1.17;;;17.40;99.90;;;;;;5080273;28;20196;-90
2023/06/08 06:46:21;;;;;;;2.67;1.10;;;17.30;99.90;;;;;;5094919;28;20191;-89
2023/06/08 06:48:56;;;;;;;1.48;1.15;;;17.30;99.90;;;;;;5094861;28;20184;-89
2023/06/08 06:51:28;;;;;;;1.77;1.20;;;17.40;99.90;;;;;;5069900;28;20594;-91
2023/06/08 06:54:01;;;;;;;3.08;1.27;;;17.40;99.90;;;;;;5066731;28;20307;-89
2023/06/08 06:56:33;;;;;;;1.13;0.95;;;17.30;99.90;;;;;;5064502;28;20275;-91
2023/06/08 06:59:05;;;;;;;1.10;1.00;;;17.30;99.90;;;;;;5060774;28;20212;-91
2023/06/08 07:01:37;;;;;;;2.22;1.75;;;17.40;99.90;;;;;;5060386;28;20204;-90
2023/06/08 07:04:11;;;;;;;6.30;5.53;;;17.40;99.90;;;;;;5056879;28;20258;-91
2023/06/08 07:06:42;;;;;;;2.78;1.25;;;17.40;99.90;;;;;;5068532;28;20211;-90
2023/06/08 07:09:15;;;;;;;3.90;3.50;;;17.50;99.90;;;;;;5089327;28;20283;-91
2023/06/08 07:11:46;;;;;;;5.22;4.35;;;17.40;99.90;;;;;;5076409;28;20226;-91
2023/06/08 07:14:19;;;;;;;3.85;2.83;;;17.40;99.90;;;;;;5076094;28;20200;-90
2023/06/08 07:16:51;;;;;;;5.57;4.10;;;17.50;99.90;;;;;;5076900;28;20666;-91
2023/06/08 07:19:24;;;;;;;8.63;6.53;;;17.50;99.90;;;;;;5075814;28;20196;-89
2023/06/08 07:21:56;;;;;;;14.40;11.65;;;17.50;99.90;;;;;;5078834;28;20206;-91
2023/06/08 07:24:28;;;;;;;13.52;11.18;;;17.50;99.90;;;;;;5076721;28;20214;-90
2023/06/08 07:27:00;;;;;;;12.15;10.00;;;17.50;99.90;;;;;;5076716;28;20202;-90
2023/06/08 07:29:31;;;;;;;15.32;11.82;;;17.50;99.90;;;;;;5076437;28;20208;-91
2023/06/08 07:32:02;;;;;;;15.88;13.70;;;17.40;99.90;;;;;;5075488;28;20243;-90
2023/06/08 07:34:38;;;;;;;5.18;4.38;;;17.40;99.90;;;;;;5076034;28;20200;-90
2023/06/08 07:37:11;;;;;;;5.97;5.30;;;17.40;99.90;;;;;;5077005;28;20199;-90
2023/06/08 07:39:44;;;;;;;10.48;9.38;;;17.40;99.90;;;;;;5076482;28;20200;-90
2023/06/08 07:42:16;;;;;;;14.20;9.52;;;17.40;99.90;;;;;;5076528;28;20570;-91
2023/06/08 07:44:49;;;;;;;8.73;4.75;;;17.40;99.90;;;;;;5061946;28;20185;-91
2023/06/08 07:47:21;;;;;;;4.70;3.25;;;17.40;99.90;;;;;;5056153;28;20204;-90
2023/06/08 07:49:54;;;;;;;2.05;1.67;;;17.30;99.90;;;;;;5054952;28;20193;-90
2023/06/08 07:52:26;;;;;;;4.93;4.05;;;17.30;99.90;;;;;;5055854;28;20228;-91
2023/06/08 07:54:57;;;;;;;8.60;7.63;;;17.30;99.90;;;;;;5056090;28;20652;-91
2023/06/08 07:57:29;;;;;;;4.70;4.30;;;17.30;99.90;;;;;;5065455;28;20207;-90
2023/06/08 08:00:03;;;;;;;3.45;2.90;;;17.30;99.90;;;;;;5085345;28;20207;-89
2023/06/08 08:02:35;;;;;;;3.47;2.40;;;17.30;99.90;;;;;;5083594;28;20585;-89
2023/06/08 08:05:10;;;;;;;1.33;1.23;;;17.30;99.90;;;;;;5070963;28;20200;-89
2023/06/08 08:07:42;;;;;;;2.35;1.30;;;17.30;99.90;;;;;;5057509;28;20243;-91
2023/06/08 08:10:16;;;;;;;2.38;1.55;;;17.30;99.90;;;;;;5055941;28;20664;-90
2023/06/08 08:12:49;;;;;;;1.73;1.40;;;17.30;99.90;;;;;;5055315;28;20671;-90
2023/06/08 08:15:21;;;;;;;2.33;2.00;;;17.30;99.90;;;;;;5071965;28;20283;-90
2023/06/08 08:17:53;;;;;;;2.25;1.60;;;17.30;99.90;;;;;;5062371;28;20205;-89
2023/06/08 08:20:27;;;;;;;2.22;1.70;;;17.30;99.90;;;;;;5069005;28;20671;-90
2023/06/08 08:22:59;;;;;;;1.52;1.30;;;17.30;99.90;;;;;;5076768;28;20203;-90
2023/06/08 08:25:32;;;;;;;2.78;1.50;;;17.30;99.90;;;;;;5080295;28;20211;-87
2023/06/08 08:28:03;;;;;;;2.03;1.30;;;17.20;99.90;;;;;;5083143;28;20200;-90
2023/06/08 08:30:36;;;;;;;2.40;1.73;;;17.20;99.90;;;;;;5085038;28;20441;-89
2023/06/08 08:33:07;;;;;;;2.22;1.65;;;17.20;99.90;;;;;;5068120;28;20240;-90
2023/06/08 08:35:40;;;;;;;1.83;1.45;;;17.20;99.90;;;;;;5061029;28;20196;-90
2023/06/08 08:38:13;;;;;;;1.45;1.10;;;17.20;99.90;;;;;;5068479;28;20215;-90
2023/06/08 08:40:45;;;;;;;3.35;1.75;;;17.20;99.90;;;;;;5075762;28;20551;-90
2023/06/08 08:43:24;;;;;;;2.67;2.08;;;17.20;99.90;;;;;;5074646;28;20207;-89
2023/06/08 08:45:57;;;;;;;2.78;2.17;;;17.10;99.90;;;;;;5074223;28;20578;-90
2023/06/08 08:48:29;;;;;;;3.40;2.67;;;17.00;99.90;;;;;;5074327;28;20495;-90
2023/06/08 08:51:04;;;;;;;4.00;3.60;;;17.00;99.90;;;;;;5073787;28;20348;-90
2023/06/08 08:53:36;;;;;;;4.38;3.97;;;17.00;99.90;;;;;;5074413;28;20728;-90
2023/06/08 08:56:07;;;;;;;2.00;1.90;;;17.00;99.90;;;;;;5072960;28;20188;-89
2023/06/08 08:58:38;;;;;;;3.20;2.70;;;16.90;99.90;;;;;;5073750;28;20200;-91
2023/06/08 09:01:12;;;;;;;3.05;2.50;;;16.90;99.90;;;;;;5074181;28;20200;-91
2023/06/08 09:03:45;;;;;;;2.30;2.10;;;16.80;99.90;;;;;;5079024;28;20199;-91
2023/06/08 09:06:19;;;;;;;2.15;1.40;;;16.80;99.90;;;;;;5069776;28;20563;-90
2023/06/08 09:08:52;;;;;;;2.40;1.20;;;16.80;99.90;;;;;;5054693;28;20219;-90
2023/06/08 09:11:26;;;;;;;1.67;1.17;;;16.90;99.90;;;;;;5053199;28;20615;-90
2023/06/08 09:14:13;;;;;;;2.03;1.17;;;16.80;99.90;;;;;;5068310;28;20659;-91
2023/06/08 09:16:45;;;;;;;2.83;1.50;;;16.80;99.90;;;;;;5074188;28;20230;-91
2023/06/08 09:19:18;;;;;;;1.63;1.30;;;16.80;99.90;;;;;;5073681;28;20191;-91
2023/06/08 09:21:51;;;;;;;1.85;1.15;;;16.80;99.90;;;;;;5073295;28;20241;-91
2023/06/08 09:24:22;;;;;;;3.30;1.20;;;16.90;99.90;;;;;;5073630;28;20204;-91
2023/06/08 09:26:56;;;;;;;1.52;1.20;;;16.80;99.90;;;;;;5073622;28;20659;-91
2023/06/08 09:32:27;;;;;;;1.00;0.90;;;16.80;99.90;;;;;;5073322;28;20315;-90
2023/06/08 09:35:01;;;;;;;4.15;3.70;;;16.80;99.90;;;;;;5074346;28;20203;-89
2023/06/08 09:37:39;;;;;;;1.58;1.30;;;16.80;99.90;;;;;;5073923;28;20673;-90
2023/06/08 09:40:21;;;;;;;1.15;0.93;;;16.80;99.90;;;;;;5073645;28;20196;-89
2023/06/08 09:42:53;;;;;;;1.20;1.10;;;16.80;99.90;;;;;;5072601;28;20204;-90
2023/06/08 09:45:27;;;;;;;1.88;0.90;;;16.70;99.90;;;;;;5073569;28;20200;-91
2023/06/08 09:48:13;;;;;;;1.17;1.08;;;16.70;99.90;;;;;;5070991;28;20284;-90
2023/06/08 09:50:45;;;;;;;2.25;1.10;;;16.70;99.90;;;;;;5073066;28;20272;-90
2023/06/08 09:53:19;;;;;;;1.33;1.13;;;16.70;99.90;;;;;;5073276;28;20204;-91
2023/06/08 09:55:53;;;;;;;1.40;1.30;;;16.70;99.90;;;;;;5072677;28;20204;-90
2023/06/08 09:58:26;;;;;;;1.00;1.00;;;16.60;99.90;;;;;;5073321;28;20206;-92
2023/06/08 10:01:05;;;;;;;1.65;1.10;;;16.60;99.90;;;;;;5073126;28;20188;-90
2023/06/08 10:03:47;;;;;;;1.85;1.10;;;16.60;99.90;;;;;;5062094;28;20212;-90
2023/06/08 10:06:19;;;;;;;4.00;1.50;;;16.60;99.90;;;;;;5052873;28;20204;-90
2023/06/08 10:08:56;;;;;;;3.95;2.05;;;16.60;99.90;;;;;;5052687;28;20683;-91
2023/06/08 10:11:29;;;;;;;3.45;2.47;;;16.60;99.90;;;;;;5061377;28;20250;-91
2023/06/08 10:14:02;;;;;;;2.67;1.92;;;16.60;99.90;;;;;;5077072;28;20278;-90
2023/06/08 10:16:34;;;;;;;1.92;1.58;;;16.60;99.90;;;;;;5073971;28;20231;-90
2023/06/08 10:19:08;;;;;;;3.03;1.70;;;16.60;99.90;;;;;;5073040;28;20204;-91
2023/06/08 10:21:41;;;;;;;2.50;1.35;;;16.60;99.90;;;;;;5071749;28;20264;-90
2023/06/08 10:24:15;;;;;;;2.45;1.70;;;16.60;99.90;;;;;;5072172;28;20280;-91
2023/06/08 10:26:48;;;;;;;2.03;1.70;;;16.60;99.90;;;;;;5072687;28;20211;-90
2023/06/08 10:29:19;;;;;;;2.58;1.70;;;16.60;99.90;;;;;;5072421;28;20301;-90
2023/06/08 10:31:52;;;;;;;2.17;1.83;;;16.50;99.90;;;;;;5052552;28;20232;-90
2023/06/08 10:34:32;;;;;;;2.88;1.58;;;16.50;99.90;;;;;;5052697;28;20206;-90
2023/06/08 10:37:03;;;;;;;2.53;1.98;;;16.40;99.90;;;;;;5052893;28;20238;-89
2023/06/08 10:39:51;;;;;;;2.70;1.80;;;16.40;99.90;;;;;;5075675;28;20206;-90
2023/06/08 10:42:23;;;;;;;3.55;1.98;;;16.40;99.90;;;;;;5086097;28;20208;-90
2023/06/08 10:44:58;;;;;;;2.15;1.90;;;16.40;99.90;;;;;;5093654;28;20206;-90
2023/06/08 10:47:31;;;;;;;1.98;1.73;;;16.30;99.90;;;;;;5075370;28;20203;-90
2023/06/08 10:50:05;;;;;;;2.83;2.10;;;16.20;99.90;;;;;;5072970;28;20188;-90
2023/06/08 10:52:44;;;;;;;4.50;2.40;;;16.20;99.90;;;;;;5073273;28;20238;-91
2023/06/08 10:55:25;;;;;;;4.32;2.60;;;16.20;99.90;;;;;;5073069;28;20196;-91
2023/06/08 10:58:03;;;;;;;3.58;2.17;;;16.20;99.90;;;;;;5072192;28;20238;-90
2023/06/08 11:00:49;;;;;;;3.92;2.22;;;16.10;99.90;;;;;;5072276;28;20195;-91
2023/06/08 11:03:22;;;;;;;2.63;2.10;;;16.10;99.90;;;;;;5082719;28;20222;-89
2023/06/08 11:05:54;;;;;;;3.63;2.10;;;16.00;99.90;;;;;;5052857;28;20180;-90
2023/06/08 11:08:27;;;;;;;3.70;1.90;;;16.00;99.90;;;;;;5051921;28;20638;-90
2023/06/08 11:11:35;;;;;;;3.40;2.00;;;15.90;99.90;;;;;;5065428;28;20207;-91
2023/06/08 11:14:14;;;;;;;2.25;1.60;;;15.90;99.90;;;;;;5081686;28;20200;-90
2023/06/08 11:16:50;;;;;;;3.33;1.40;;;15.90;99.90;;;;;;5078442;28;20196;-90
2023/06/08 11:19:25;;;;;;;4.03;1.80;;;15.90;99.90;;;;;;5079236;28;20214;-91
2023/06/08 11:21:57;;;;;;;2.90;1.77;;;15.90;99.90;;;;;;5081139;28;20214;-91
2023/06/08 11:24:31;;;;;;;2.03;1.45;;;15.90;99.90;;;;;;5080609;28;20196;-91
2023/06/08 11:27:04;;;;;;;2.67;1.70;;;15.90;99.90;;;;;;5081530;28;20183;-91
2023/06/08 11:29:42;;;;;;;1.70;1.60;;;15.90;99.90;;;;;;5082136;28;20242;-90
2023/06/08 11:32:14;;;;;;;1.90;1.50;;;15.90;99.90;;;;;;5081002;28;20259;-90
2023/06/08 11:34:51;;;;;;;2.45;1.60;;;15.80;99.90;;;;;;5083261;28;20207;-90
2023/06/08 11:37:23;;;;;;;3.67;1.40;;;15.80;99.90;;;;;;5082130;28;20207;-90
2023/06/08 11:39:58;;;;;;;1.40;1.30;;;15.80;99.90;;;;;;5070728;28;20180;-91
2023/06/08 11:42:33;;;;;;;2.67;1.60;;;15.70;99.90;;;;;;5080892;28;20195;-91
2023/06/08 11:45:11;;;;;;;2.47;1.20;;;15.70;99.90;;;;;;5080761;28;20195;-91
2023/06/08 11:47:45;;;;;;;2.78;1.20;;;15.70;99.90;;;;;;5080366;28;20195;-90
2023/06/08 11:50:18;;;;;;;1.67;1.38;;;15.70;99.90;;;;;;5084060;28;20211;-89
2023/06/08 11:52:52;;;;;;;2.30;1.30;;;15.70;99.90;;;;;;5082145;28;20245;-90
2023/06/08 11:55:30;;;;;;;2.28;1.15;;;15.60;99.90;;;;;;5081738;28;20199;-90
2023/06/08 11:58:02;;;;;;;1.60;1.10;;;15.60;99.90;;;;;;5079313;28;20188;-90
2023/06/08 12:00:36;;;;;;;1.98;1.30;;;15.60;99.90;;;;;;5077099;28;20609;-90
2023/06/08 12:03:12;;;;;;;1.55;1.10;;;15.50;99.90;;;;;;5083940;28;20194;-90
2023/06/08 12:05:45;;;;;;;2.63;1.10;;;15.50;99.90;;;;;;5080967;28;20202;-91
2023/06/08 12:08:19;;;;;;;1.80;1.10;;;15.50;99.90;;;;;;5095880;28;20216;-89
2023/06/08 12:10:52;;;;;;;1.35;1.00;;;15.40;99.90;;;;;;5092175;28;20294;-89
2023/06/08 12:13:26;;;;;;;1.42;1.20;;;15.40;99.90;;;;;;5080027;28;20224;-89
2023/06/08 12:16:06;;;;;;;1.25;1.10;;;15.30;99.90;;;;;;5060483;28;20345;-91
2023/06/08 12:18:44;;;;;;;3.10;1.40;;;15.30;99.90;;;;;;5069642;28;20199;-91
2023/06/08 12:21:19;;;;;;;1.67;1.27;;;15.30;99.90;;;;;;5087525;28;20243;-90
2023/06/08 12:23:53;;;;;;;2.22;1.20;;;15.30;99.90;;;;;;5087471;28;20226;-91
2023/06/08 12:26:27;;;;;;;1.50;1.00;;;15.20;99.90;;;;;;5084192;28;20253;-90
2023/06/08 12:29:02;;;;;;;3.35;1.08;;;15.20;99.90;;;;;;5080109;28;20238;-90
2023/06/08 12:31:40;;;;;;;1.83;1.00;;;15.20;99.90;;;;;;5079774;28;20227;-90
2023/06/08 12:34:17;;;;;;;3.28;1.08;;;15.30;99.90;;;;;;5081437;28;20273;-91
2023/06/08 12:36:48;;;;;;;1.48;1.00;;;15.30;99.90;;;;;;5080979;28;20577;-91
2023/06/08 12:39:22;;;;;;;1.90;1.00;;;15.40;99.90;;;;;;5080934;28;20207;-91
2023/06/08 12:41:55;;;;;;;1.55;0.82;;;15.30;99.90;;;;;;5079601;28;20208;-91
2023/06/08 12:44:28;;;;;;;2.20;0.90;;;15.40;99.90;;;;;;5080446;28;20200;-91
2023/06/08 12:47:01;;;;;;;1.35;1.05;;;15.30;99.90;;;;;;5074478;28;20694;-91
2023/06/08 12:49:32;;;;;;;2.05;1.00;;;15.40;99.90;;;;;;5055744;28;20201;-92
2023/06/08 12:52:03;;;;;;;1.65;1.00;;;15.40;99.90;;;;;;5054307;28;20247;-92
2023/06/08 12:54:35;;;;;;;2.13;1.13;;;15.40;99.90;;;;;;5054654;28;20548;-90
2023/06/08 12:59:57;;;;;;;1.00;0.90;;;15.40;99.90;;;;;;5071304;28;20720;-91
2023/06/08 13:02:32;;;;;;;1.27;1.00;;;15.30;99.90;;;;;;5061202;28;20212;-91
2023/06/08 13:05:04;;;;;;;1.30;1.00;;;15.30;99.90;;;;;;5077309;28;20192;-91
2023/06/08 13:07:37;;;;;;;1.85;0.85;;;15.30;99.90;;;;;;5078239;28;20265;-91
2023/06/08 13:10:09;;;;;;;0.95;0.85;;;15.20;99.90;;;;;;5079206;28;20204;-91
2023/06/08 13:12:43;;;;;;;1.38;0.82;;;15.20;99.90;;;;;;5079286;28;20228;-90
2023/06/08 13:15:17;;;;;;;0.95;0.85;;;15.20;99.90;;;;;;5097615;28;20206;-91
2023/06/08 13:17:51;;;;;;;1.40;0.93;;;15.20;99.90;;;;;;5087681;28;20211;-90
2023/06/08 13:20:24;;;;;;;1.42;0.73;;;15.20;99.90;;;;;;5080252;28;20206;-90
2023/06/08 13:22:59;;;;;;;2.05;1.00;;;15.20;99.90;;;;;;5078946;28;20210;-91
2023/06/08 13:25:32;;;;;;;1.73;0.80;;;15.20;99.90;;;;;;5063309;28;20659;-91
2023/06/08 13:28:09;;;;;;;1.23;0.80;;;15.20;99.90;;;;;;5059484;28;20199;-90